createdAt,value
2018-09-18T00:00:03.008Z,63.50
2018-09-18T00:02:31.371Z,64.05
2018-09-18T00:04:59.749Z,64.22
2018-09-18T00:07:28.189Z,65.25
2018-09-18T00:09:56.525Z,64.34
2018-09-18T00:12:24.929Z,64.70
2018-09-18T00:14:53.283Z,64.35
2018-09-18T00:17:21.698Z,62.83
2018-09-18T00:19:50.064Z,64.34
2018-09-18T00:22:18.541Z,63.80
2018-09-18T00:24:46.889Z,64.95
2018-09-18T00:27:15.234Z,63.82
2018-09-18T00:29:43.592Z,63.79
2018-09-18T00:32:11.925Z,65.12
2018-09-18T00:34:40.283Z,64.56
2018-09-18T00:37:08.635Z,64.15
2018-09-18T00:39:37.015Z,65.48
2018-09-18T00:42:05.366Z,65.15
2018-09-18T00:44:33.704Z,64.66
2018-09-18T00:47:02.035Z,64.62
2018-09-18T00:49:30.388Z,65.62
2018-09-18T00:51:58.720Z,65.89
2018-09-18T00:54:27.132Z,64.43
2018-09-18T00:56:55.481Z,65.87
2018-09-18T00:59:23.833Z,64.90
2018-09-18T01:01:52.732Z,65.92
2018-09-18T01:04:21.091Z,65.52
2018-09-18T01:06:49.435Z,64.82
2018-09-18T01:09:17.848Z,66.41
2018-09-18T01:11:46.191Z,66.13
2018-09-18T01:14:14.536Z,64.39
2018-09-18T01:16:42.884Z,64.23
2018-09-18T01:19:11.248Z,66.05
2018-09-18T01:21:39.635Z,65.63
2018-09-18T01:24:07.970Z,64.96
2018-09-18T01:26:36.356Z,66.99
2018-09-18T01:29:04.724Z,65.08
2018-09-18T01:31:33.072Z,65.71
2018-09-18T01:34:01.401Z,65.76
2018-09-18T01:36:29.757Z,65.53
2018-09-18T01:45:58.287Z,64.74
2018-09-18T01:48:26.632Z,66.27
2018-09-18T01:50:54.970Z,65.85
2018-09-18T01:53:23.314Z,65.00
2018-09-18T01:55:51.660Z,64.78
2018-09-18T01:58:20.004Z,64.38
2018-09-18T02:00:48.383Z,65.90
2018-09-18T02:03:16.760Z,64.71
2018-09-18T02:05:45.135Z,65.89
2018-09-18T02:08:13.482Z,65.96
2018-09-18T02:10:41.850Z,66.86
2018-09-18T02:13:10.224Z,66.03
2018-09-18T02:15:38.572Z,65.18
2018-09-18T02:18:06.907Z,65.56
2018-09-18T02:20:35.250Z,65.02
2018-09-18T02:23:03.750Z,64.78
2018-09-18T02:25:32.104Z,65.60
2018-09-18T02:28:00.436Z,66.06
2018-09-18T02:30:28.813Z,64.89
2018-09-18T02:32:57.167Z,64.39
2018-09-18T02:35:25.471Z,64.91
2018-09-18T02:37:53.801Z,65.54
2018-09-18T02:40:22.154Z,65.56
2018-09-18T02:42:50.556Z,64.82
2018-09-18T02:45:18.901Z,65.95
2018-09-18T02:47:47.256Z,65.16
2018-09-18T02:50:15.692Z,65.67
2018-09-18T02:52:44.044Z,65.32
2018-09-18T02:55:12.407Z,65.36
2018-09-18T02:57:40.760Z,65.96
2018-09-18T03:00:09.112Z,65.96
2018-09-18T03:02:37.459Z,65.56
2018-09-18T03:05:05.843Z,66.46
2018-09-18T03:07:34.187Z,66.03
2018-09-18T03:10:02.552Z,65.99
2018-09-18T03:12:30.899Z,66.27
2018-09-18T03:14:59.230Z,66.10
2018-09-18T03:17:27.626Z,66.95
2018-09-18T03:19:55.958Z,66.78
2018-09-18T03:22:24.314Z,65.39
2018-09-18T03:24:52.661Z,64.87
2018-09-18T03:27:21.025Z,65.26
2018-09-18T03:29:49.384Z,65.63
2018-09-18T03:32:17.749Z,64.58
2018-09-18T03:34:46.114Z,65.41
2018-09-18T03:37:14.493Z,64.56
2018-09-18T03:39:42.840Z,64.90
2018-09-18T03:42:11.300Z,64.88
2018-09-18T03:44:39.701Z,65.50
2018-09-18T03:47:08.069Z,64.65
2018-09-18T03:49:36.421Z,64.78
2018-09-18T03:52:04.763Z,64.52
2018-09-18T03:54:33.111Z,65.40
2018-09-18T03:57:01.459Z,64.70
2018-09-18T03:59:29.900Z,65.25
2018-09-18T04:01:58.295Z,65.41
2018-09-18T04:04:26.661Z,65.35
2018-09-18T04:06:55.009Z,65.40
2018-09-18T04:09:23.388Z,65.46
2018-09-18T04:11:51.760Z,65.06
2018-09-18T04:14:20.095Z,65.35
2018-09-18T04:16:48.416Z,64.82
2018-09-18T04:19:16.760Z,64.88
2018-09-18T04:21:45.107Z,65.37
2018-09-18T04:24:13.461Z,65.42
2018-09-18T04:26:42.215Z,64.64
2018-09-18T04:29:10.912Z,65.21
2018-09-18T04:31:40.795Z,64.71
2018-09-18T04:34:09.285Z,65.58
2018-09-18T04:36:37.676Z,64.29
2018-09-18T04:39:10.311Z,65.62
2018-09-18T04:41:38.732Z,65.61
2018-09-18T04:44:07.672Z,65.79
2018-09-18T04:46:36.031Z,66.84
2018-09-18T04:49:04.473Z,65.29
2018-09-18T04:51:32.861Z,65.07
2018-09-18T04:54:01.224Z,65.40
2018-09-18T04:56:29.930Z,65.44
2018-09-18T04:58:58.363Z,65.93
2018-09-18T05:01:26.727Z,66.13
2018-09-18T05:03:55.081Z,65.00
2018-09-18T05:06:23.431Z,66.53
2018-09-18T05:08:51.788Z,66.29
2018-09-18T05:11:20.187Z,67.41
2018-09-18T05:13:48.681Z,65.43
2018-09-18T05:16:17.003Z,65.53
2018-09-18T05:18:45.351Z,65.90
2018-09-18T05:21:13.708Z,65.73
2018-09-18T05:23:42.065Z,66.74
2018-09-18T05:26:10.476Z,66.25
2018-09-18T05:28:39.154Z,67.11
2018-09-18T05:31:07.505Z,65.86
2018-09-18T05:33:35.859Z,65.76
2018-09-18T05:36:04.195Z,66.00
2018-09-18T05:38:32.547Z,65.43
2018-09-18T05:41:01.027Z,65.36
2018-09-18T05:43:29.431Z,65.08
2018-09-18T05:45:57.792Z,65.59
2018-09-18T05:48:26.215Z,65.72
2018-09-18T05:50:54.562Z,65.18
2018-09-18T05:53:22.921Z,65.65
2018-09-18T05:55:51.300Z,64.30
2018-09-18T05:58:19.644Z,65.28
2018-09-18T06:00:48.041Z,64.27
2018-09-18T06:03:16.375Z,64.70
2018-09-18T06:05:44.733Z,64.04
2018-09-18T06:08:13.057Z,64.42
2018-09-18T06:10:41.410Z,64.11
2018-09-18T06:13:09.833Z,63.62
2018-09-18T06:15:38.208Z,63.94
2018-09-18T06:18:06.556Z,63.00
2018-09-18T06:20:34.936Z,62.54
2018-09-18T06:23:03.314Z,62.61
2018-09-18T06:25:31.683Z,62.51
2018-09-18T06:28:00.026Z,62.78
2018-09-18T06:30:28.356Z,61.01
2018-09-18T06:32:56.718Z,60.69
2018-09-18T06:35:25.060Z,61.13
2018-09-18T06:37:53.386Z,60.51
2018-09-18T06:40:21.769Z,60.44
2018-09-18T06:42:50.125Z,60.39
2018-09-18T06:45:18.487Z,59.00
2018-09-18T06:47:46.855Z,59.96
2018-09-18T06:50:15.194Z,58.26
2018-09-18T06:52:43.567Z,57.38
2018-09-18T06:55:11.933Z,58.02
2018-09-18T06:57:40.340Z,58.64
2018-09-18T07:00:08.688Z,57.70
2018-09-18T07:02:37.052Z,57.18
2018-09-18T07:05:05.404Z,57.05
2018-09-18T07:07:33.798Z,57.68
2018-09-18T07:10:02.162Z,56.03
2018-09-18T07:12:30.774Z,56.95
2018-09-18T07:14:59.259Z,56.63
2018-09-18T07:17:27.601Z,56.01
2018-09-18T07:19:55.964Z,55.92
2018-09-18T07:22:24.364Z,55.65
2018-09-18T07:24:52.807Z,55.30
2018-09-18T07:27:21.160Z,54.77
2018-09-18T07:29:49.532Z,54.21
2018-09-18T07:32:17.877Z,53.36
2018-09-18T07:34:46.235Z,53.87
2018-09-18T07:37:14.646Z,51.86
2018-09-18T07:39:42.986Z,51.25
2018-09-18T07:42:11.329Z,50.20
2018-09-18T07:44:39.920Z,51.33
2018-09-18T07:47:08.509Z,49.87
2018-09-18T07:49:36.853Z,50.40
2018-09-18T07:52:05.278Z,49.02
2018-09-18T07:54:33.622Z,48.89
2018-09-18T07:57:02.002Z,49.89
2018-09-18T07:59:30.386Z,47.99
2018-09-18T08:01:58.843Z,47.02
2018-09-18T08:04:27.189Z,47.42
2018-09-18T08:06:55.545Z,47.34
2018-09-18T08:09:23.913Z,45.48
2018-09-18T08:11:52.360Z,46.36
2018-09-18T08:14:20.671Z,46.39
2018-09-18T08:16:49.022Z,45.56
2018-09-18T08:19:17.429Z,45.39
2018-09-18T08:21:45.798Z,45.58
2018-09-18T08:24:14.161Z,44.58
2018-09-18T08:26:42.499Z,45.98
2018-09-18T08:29:10.856Z,46.08
2018-09-18T08:31:39.247Z,45.35
2018-09-18T08:34:07.592Z,44.24
2018-09-18T08:36:35.944Z,44.02
2018-09-18T08:39:06.095Z,42.89
2018-09-18T08:41:34.502Z,43.24
2018-09-18T08:44:02.884Z,42.84
2018-09-18T08:46:31.267Z,42.07
2018-09-18T08:48:59.660Z,42.93
2018-09-18T08:51:28.693Z,43.94
2018-09-18T08:53:57.069Z,43.43
2018-09-18T08:56:25.445Z,42.67
2018-09-18T08:58:53.957Z,43.37
2018-09-18T09:01:22.357Z,41.86
2018-09-18T09:03:50.741Z,40.37
2018-09-18T09:06:19.131Z,41.24
2018-09-18T09:08:47.605Z,40.91
2018-09-18T09:11:15.895Z,40.58
2018-09-18T09:13:44.305Z,41.06
2018-09-18T09:16:12.805Z,41.15
2018-09-18T09:18:41.188Z,40.41
2018-09-18T09:21:09.609Z,39.03
2018-09-18T09:23:37.948Z,40.44
2018-09-18T09:26:06.970Z,38.28
2018-09-18T09:28:35.598Z,39.78
2018-09-18T09:31:04.492Z,38.16
2018-09-18T09:33:32.830Z,39.75
2018-09-18T09:36:01.227Z,39.63
2018-09-18T09:38:29.655Z,38.14
2018-09-18T09:40:58.340Z,38.08
2018-09-18T09:43:26.715Z,37.36
2018-09-18T09:45:55.114Z,38.75
2018-09-18T09:48:23.622Z,37.50
2018-09-18T09:50:51.984Z,39.64
2018-09-18T09:53:20.416Z,37.55
2018-09-18T09:55:49.087Z,35.19
2018-09-18T09:58:17.415Z,37.36
2018-09-18T10:00:51.389Z,36.04
2018-09-18T10:03:19.704Z,34.68
2018-09-18T10:05:48.045Z,34.33
2018-09-18T10:08:16.377Z,36.21
2018-09-18T10:10:44.815Z,36.75
2018-09-18T10:13:13.216Z,32.36
2018-09-18T10:15:41.553Z,32.63
2018-09-18T10:18:09.955Z,31.25
2018-09-18T10:20:38.248Z,30.73
2018-09-18T10:23:06.801Z,29.74
2018-09-18T10:25:35.139Z,29.21
2018-09-18T10:28:03.603Z,27.74
2018-09-18T10:30:31.962Z,27.26
2018-09-18T10:33:00.284Z,27.31
2018-09-18T10:35:28.679Z,26.78
2018-09-18T10:37:57.008Z,25.63
2018-09-18T10:40:25.352Z,27.12
2018-09-18T10:42:53.828Z,27.30
2018-09-18T10:45:22.100Z,24.72
2018-09-18T10:47:50.461Z,26.26
2018-09-18T10:50:18.804Z,24.93
2018-09-18T10:52:47.173Z,26.42
2018-09-18T10:55:15.536Z,26.28
2018-09-18T10:57:43.871Z,27.37
2018-09-18T11:00:12.262Z,27.58
2018-09-18T11:02:40.605Z,28.23
2018-09-18T11:05:08.954Z,29.46
2018-09-18T11:07:37.376Z,27.71
2018-09-18T11:10:06.119Z,28.12
2018-09-18T11:12:34.493Z,29.35
2018-09-18T11:15:02.875Z,29.52
2018-09-18T11:17:31.725Z,30.50
2018-09-18T11:20:00.092Z,30.79
2018-09-18T11:22:28.602Z,30.23
2018-09-18T11:24:56.874Z,31.05
2018-09-18T11:27:25.179Z,32.11
2018-09-18T11:29:53.523Z,32.04
2018-09-18T11:32:21.883Z,32.33
2018-09-18T11:34:50.241Z,32.03
2018-09-18T11:37:18.587Z,33.10
2018-09-18T11:39:46.951Z,32.14
2018-09-18T11:42:15.272Z,32.31
2018-09-18T11:44:43.622Z,33.47
2018-09-18T11:47:12.821Z,32.71
2018-09-18T11:49:41.164Z,32.97
2018-09-18T11:52:09.513Z,32.55
2018-09-18T11:54:37.868Z,34.62
2018-09-18T11:57:06.217Z,33.54
2018-09-18T11:59:34.538Z,34.23
2018-09-18T12:02:02.895Z,34.19
2018-09-18T12:04:31.237Z,33.53
2018-09-18T12:06:59.584Z,33.74
2018-09-18T12:09:27.948Z,33.54
2018-09-18T12:11:56.719Z,33.93
2018-09-18T12:14:25.329Z,35.18
2018-09-18T12:16:53.668Z,34.09
2018-09-18T12:19:21.993Z,33.54
2018-09-18T12:21:50.370Z,33.82
2018-09-18T12:24:18.719Z,33.81
2018-09-18T12:26:47.056Z,33.61
2018-09-18T12:29:15.471Z,32.91
2018-09-18T12:31:43.816Z,33.93
2018-09-18T12:34:12.196Z,33.19
2018-09-18T12:36:40.619Z,33.37
2018-09-18T12:39:09.833Z,33.83
2018-09-18T12:41:38.678Z,33.70
2018-09-18T12:44:07.395Z,32.50
2018-09-18T12:46:35.700Z,33.86
2018-09-18T12:49:04.071Z,34.12
2018-09-18T12:51:32.397Z,33.66
2018-09-18T12:54:00.768Z,33.67
2018-09-18T12:56:29.116Z,34.03
2018-09-18T12:58:57.593Z,34.08
2018-09-18T13:01:25.838Z,34.02
2018-09-18T13:03:54.180Z,34.11
2018-09-18T13:06:22.687Z,34.15
2018-09-18T13:08:50.890Z,34.07
2018-09-18T13:11:19.217Z,35.17
2018-09-18T13:13:47.596Z,34.88
2018-09-18T13:16:16.000Z,34.86
2018-09-18T13:18:44.348Z,34.65
2018-09-18T13:21:12.692Z,34.43
2018-09-18T13:23:41.041Z,34.43
2018-09-18T13:26:09.558Z,34.50
2018-09-18T13:28:38.037Z,35.21
2018-09-18T13:31:06.386Z,34.89
2018-09-18T13:33:34.688Z,34.91
2018-09-18T13:36:03.022Z,34.64
2018-09-18T13:38:31.406Z,34.77
2018-09-18T13:40:59.809Z,33.82
2018-09-18T13:43:28.104Z,34.32
2018-09-18T13:45:56.461Z,33.94
2018-09-18T13:48:24.802Z,34.00
2018-09-18T13:50:53.146Z,33.39
2018-09-18T13:53:21.489Z,33.19
2018-09-18T13:55:49.899Z,32.62
2018-09-18T13:58:18.234Z,33.23
2018-09-18T14:00:46.572Z,33.78
2018-09-18T14:03:14.920Z,33.12
2018-09-18T14:05:43.254Z,33.44
2018-09-18T14:08:11.595Z,33.52
2018-09-18T14:10:39.927Z,32.50
2018-09-18T14:13:08.596Z,33.76
2018-09-18T14:15:36.903Z,32.79
2018-09-18T14:18:05.248Z,33.61
2018-09-18T14:20:33.607Z,33.36
2018-09-18T14:23:02.022Z,33.73
2018-09-18T14:25:30.379Z,32.83
2018-09-18T14:27:58.713Z,33.33
2018-09-18T14:30:27.040Z,33.80
2018-09-18T14:32:55.484Z,33.58
2018-09-18T14:35:23.877Z,32.88
2018-09-18T14:37:52.222Z,34.20
2018-09-18T14:40:20.723Z,31.81
2018-09-18T14:42:49.058Z,31.46
2018-09-18T14:45:17.426Z,32.40
2018-09-18T14:47:45.787Z,32.19
2018-09-18T14:50:14.042Z,32.02
2018-09-18T14:52:42.473Z,32.37
2018-09-18T14:55:10.856Z,33.07
2018-09-18T14:57:39.211Z,33.02
2018-09-18T15:00:07.611Z,33.16
2018-09-18T15:02:35.972Z,33.38
2018-09-18T15:05:04.302Z,32.79
2018-09-18T15:07:32.627Z,33.65
2018-09-18T15:10:00.937Z,32.68
2018-09-18T15:12:29.257Z,33.19
2018-09-18T15:14:57.593Z,33.13
2018-09-18T15:17:25.907Z,31.46
2018-09-18T15:19:54.287Z,31.94
2018-09-18T15:22:22.716Z,30.60
2018-09-18T15:24:51.030Z,30.56
2018-09-18T15:27:19.435Z,30.24
2018-09-18T15:29:47.771Z,29.94
2018-09-18T15:32:16.176Z,31.03
2018-09-18T15:34:44.550Z,31.70
2018-09-18T15:37:13.342Z,32.37
2018-09-18T15:39:41.841Z,31.38
2018-09-18T15:42:10.147Z,32.05
2018-09-18T15:44:38.497Z,31.42
2018-09-18T15:47:06.860Z,31.93
2018-09-18T15:49:35.810Z,31.05
2018-09-18T15:52:04.236Z,31.86
2018-09-18T15:54:32.539Z,31.42
2018-09-18T15:57:00.896Z,31.94
2018-09-18T15:59:29.209Z,32.60
2018-09-18T16:01:57.540Z,31.82
2018-09-18T16:04:25.860Z,33.54
2018-09-18T16:06:54.209Z,32.87
2018-09-18T16:09:22.577Z,32.68
2018-09-18T16:11:50.925Z,32.60
2018-09-18T16:14:19.312Z,32.96
2018-09-18T16:16:47.672Z,33.59
2018-09-18T16:19:16.438Z,33.51
2018-09-18T16:21:44.924Z,35.07
2018-09-18T16:24:13.311Z,34.25
2018-09-18T16:26:41.711Z,34.88
2018-09-18T16:29:10.198Z,35.09
2018-09-18T16:31:38.574Z,35.28
2018-09-18T16:34:06.920Z,35.32
2018-09-18T16:36:35.267Z,35.88
2018-09-18T16:39:03.672Z,35.65
2018-09-18T16:41:32.034Z,35.95
2018-09-18T16:44:00.357Z,36.85
2018-09-18T16:46:28.708Z,35.52
2018-09-18T16:48:57.187Z,35.80
2018-09-18T16:51:25.553Z,36.75
2018-09-18T16:53:53.904Z,38.14
2018-09-18T16:56:22.215Z,38.08
2018-09-18T16:58:50.606Z,38.92
2018-09-18T17:01:18.954Z,40.13
2018-09-18T17:03:47.294Z,39.42
2018-09-18T17:06:15.620Z,39.52
2018-09-18T17:08:43.945Z,39.60
2018-09-18T17:11:12.303Z,39.75
2018-09-18T17:13:40.959Z,39.90
2018-09-18T17:16:09.307Z,39.86
2018-09-18T17:18:37.697Z,40.09
2018-09-18T17:21:06.599Z,40.17
2018-09-18T17:23:35.431Z,40.67
2018-09-18T17:26:03.765Z,41.38
2018-09-18T17:28:32.201Z,40.98
2018-09-18T17:31:00.466Z,41.46
2018-09-18T17:33:28.859Z,41.09
2018-09-18T17:35:57.220Z,42.13
2018-09-18T17:38:25.603Z,42.82
2018-09-18T17:40:53.950Z,43.27
2018-09-18T17:43:22.547Z,43.37
2018-09-18T17:45:50.978Z,44.18
2018-09-18T17:48:19.338Z,43.63
2018-09-18T17:50:47.762Z,43.63
2018-09-18T17:53:16.075Z,43.83
2018-09-18T17:55:44.400Z,44.39
2018-09-18T17:58:12.776Z,45.51
2018-09-18T18:00:41.121Z,44.96
2018-09-18T18:03:09.513Z,46.14
2018-09-18T18:05:37.879Z,46.53
2018-09-18T18:08:06.265Z,46.33
2018-09-18T18:10:34.900Z,46.44
2018-09-18T18:13:03.251Z,47.57
2018-09-18T18:15:31.574Z,47.01
2018-09-18T18:18:00.013Z,46.80
2018-09-18T18:20:28.437Z,47.70
2018-09-18T18:22:56.735Z,48.16
2018-09-18T18:25:25.855Z,47.52
2018-09-18T18:27:54.196Z,48.42
2018-09-18T18:30:22.539Z,47.96
2018-09-18T18:32:51.146Z,48.36
2018-09-18T18:35:19.532Z,48.02
2018-09-18T18:37:47.880Z,47.97
2018-09-18T18:40:16.307Z,47.88
2018-09-18T18:42:44.691Z,48.75
2018-09-18T18:45:13.032Z,47.52
2018-09-18T18:47:41.564Z,48.42
2018-09-18T18:50:10.311Z,48.01
2018-09-18T18:52:38.676Z,48.23
2018-09-18T18:55:07.484Z,47.33
2018-09-18T18:57:35.828Z,48.34
2018-09-18T19:00:04.348Z,48.34
2018-09-18T19:02:32.677Z,48.02
2018-09-18T19:05:01.061Z,47.89
2018-09-18T19:07:29.971Z,48.15
2018-09-18T19:09:58.386Z,48.54
2018-09-18T19:12:27.029Z,48.65
2018-09-18T19:14:57.180Z,49.18
2018-09-18T19:17:27.132Z,48.70
2018-09-18T19:19:57.252Z,49.29
2018-09-18T19:22:26.605Z,49.25
2018-09-18T19:24:56.799Z,49.69
2018-09-18T19:27:26.623Z,49.27
2018-09-18T19:29:56.687Z,49.29
2018-09-18T19:32:26.394Z,49.31
2018-09-18T19:34:56.669Z,49.43
2018-09-18T19:37:28.771Z,50.25
2018-09-18T19:39:58.253Z,48.89
2018-09-18T19:42:28.100Z,48.71
2018-09-18T19:44:57.686Z,48.84
2018-09-18T19:47:27.850Z,48.50
2018-09-18T19:49:56.972Z,48.60
2018-09-18T19:52:25.615Z,48.45
2018-09-18T19:54:56.713Z,48.02
2018-09-18T19:57:26.731Z,48.67
2018-09-18T19:59:56.021Z,49.28
2018-09-18T20:02:26.936Z,48.87
2018-09-18T20:04:57.257Z,48.93
2018-09-18T20:07:27.220Z,49.17
2018-09-18T20:09:58.050Z,49.14
2018-09-18T20:12:28.229Z,49.42
2018-09-18T20:14:57.589Z,49.20
2018-09-18T20:17:27.702Z,49.66
2018-09-18T20:19:58.358Z,49.45
2018-09-18T20:22:27.945Z,49.54
2018-09-18T20:24:57.131Z,49.27
2018-09-18T20:27:27.119Z,49.22
2018-09-18T20:29:57.258Z,49.57
2018-09-18T20:32:27.441Z,50.50
2018-09-18T20:34:57.885Z,50.44
2018-09-18T20:37:27.526Z,50.32
2018-09-18T20:39:56.069Z,50.79
2018-09-18T20:42:26.173Z,50.33
2018-09-18T20:44:55.877Z,50.52
2018-09-18T20:47:26.968Z,50.77
2018-09-18T20:49:57.342Z,49.95
2018-09-18T20:52:28.527Z,51.78
2018-09-18T20:54:58.323Z,50.84
2018-09-18T20:57:27.258Z,50.20
2018-09-18T20:59:57.463Z,50.66
2018-09-18T21:02:26.034Z,50.19
2018-09-18T21:04:56.249Z,50.93
2018-09-18T21:07:25.614Z,50.19
2018-09-18T21:09:55.074Z,50.88
2018-09-18T21:12:25.250Z,50.38
2018-09-18T21:14:55.011Z,51.31
2018-09-18T21:17:24.662Z,50.99
2018-09-18T21:19:54.131Z,51.51
2018-09-18T21:22:23.703Z,50.53
2018-09-18T21:25:02.404Z,50.69
2018-09-18T21:27:32.476Z,51.12
2018-09-18T21:30:02.544Z,50.28
2018-09-18T21:32:31.676Z,50.59
2018-09-18T21:35:02.527Z,51.55
2018-09-18T21:37:32.247Z,51.73
2018-09-18T21:40:01.710Z,51.69
2018-09-18T21:42:31.028Z,50.93
2018-09-18T21:45:00.688Z,51.75
2018-09-18T21:47:30.305Z,52.00
2018-09-18T21:49:59.703Z,52.09
2018-09-18T21:52:29.078Z,51.89
2018-09-18T21:54:59.502Z,52.08
2018-09-18T21:57:29.036Z,51.00
2018-09-18T21:59:58.644Z,50.97
2018-09-18T22:02:28.234Z,51.92
2018-09-18T22:04:57.923Z,51.38
2018-09-18T22:07:27.236Z,51.21
2018-09-18T22:09:57.053Z,51.87
2018-09-18T22:12:27.243Z,53.07
2018-09-18T22:14:56.762Z,51.39
2018-09-18T22:17:26.237Z,52.93
2018-09-18T22:19:55.937Z,51.97
2018-09-18T22:22:26.100Z,51.93
2018-09-18T22:24:56.873Z,51.33
2018-09-18T22:27:26.524Z,52.28
2018-09-18T22:29:56.583Z,52.80
2018-09-18T22:32:26.151Z,51.37
2018-09-18T22:34:55.186Z,51.76
2018-09-18T22:37:24.117Z,52.86
2018-09-18T22:39:53.968Z,51.87
2018-09-18T22:42:23.726Z,52.22
2018-09-18T22:44:54.172Z,52.91
2018-09-18T22:47:22.994Z,51.73
2018-09-18T22:49:53.627Z,52.88
2018-09-18T22:52:23.327Z,52.78
2018-09-18T22:54:52.252Z,52.51
2018-09-18T22:57:22.056Z,53.18
2018-09-18T22:59:51.530Z,53.28
2018-09-18T23:02:20.989Z,52.56
2018-09-18T23:04:50.592Z,52.29
2018-09-18T23:07:20.612Z,52.61
2018-09-18T23:09:49.633Z,52.13
2018-09-18T23:12:19.244Z,52.07
2018-09-18T23:14:49.188Z,52.58
2018-09-18T23:17:19.326Z,52.89
2018-09-18T23:19:49.350Z,53.79
2018-09-18T23:22:18.465Z,52.93
2018-09-18T23:24:47.713Z,52.62
2018-09-18T23:27:16.140Z,52.73
2018-09-18T23:29:44.977Z,52.15
2018-09-18T23:32:14.752Z,52.55
2018-09-18T23:34:45.255Z,53.31
2018-09-18T23:37:14.199Z,52.86
2018-09-18T23:39:44.223Z,52.93
2018-09-18T23:42:14.737Z,52.57
2018-09-18T23:44:43.965Z,53.69
2018-09-18T23:47:13.054Z,53.86
2018-09-18T23:49:41.967Z,53.25
2018-09-18T23:52:11.794Z,53.53
2018-09-18T23:54:41.652Z,53.38
2018-09-18T23:57:10.553Z,53.11
2018-09-18T23:59:39.925Z,53.78
